Time;durP1;ratioP1;P1;durP2;ratioP2;P2;SDS_P1;SDS_P2;PMS_P1;PMS_P2;Temp;Humidity;BMP_temperature;BMP_pressure;BME280_temperature;BME280_humidity;BME280_pressure;Samples;Min_cycle;Max_cycle;Signal;HPM_P1;HPM_P2
2022/07/06 00:01:41;;;;;;;5.75;4.90;;;;;;;;;;1684113;85;21127;-66
2022/07/06 00:04:07;;;;;;;8.05;5.00;;;;;;;;;;1680265;85;21065;-66
2022/07/06 00:06:34;;;;;;;6.37;5.45;;;;;;;;;;1684479;85;21143;-66
2022/07/06 00:09:00;;;;;;;6.75;4.70;;;;;;;;;;1681027;84;21016;-66
2022/07/06 00:11:27;;;;;;;6.20;4.80;;;;;;;;;;1683192;84;21531;-66
2022/07/06 00:13:53;;;;;;;7.08;4.70;;;;;;;;;;1702174;83;21132;-66
2022/07/06 00:16:19;;;;;;;6.00;4.92;;;;;;;;;;1685520;85;21037;-66
2022/07/06 00:18:46;;;;;;;6.60;5.50;;;;;;;;;;1658466;85;21089;-66
2022/07/06 00:21:12;;;;;;;5.62;4.97;;;;;;;;;;1657218;86;21065;-66
2022/07/06 00:23:37;;;;;;;6.20;4.87;;;;;;;;;;1680260;85;21044;-66
2022/07/06 00:26:03;;;;;;;6.58;5.15;;;;;;;;;;1680348;85;21052;-66
2022/07/06 00:28:30;;;;;;;6.95;5.30;;;;;;;;;;1681024;84;21070;-66
2022/07/06 00:30:57;;;;;;;7.35;5.20;;;;;;;;;;1684441;85;21026;-66
2022/07/06 00:33:24;;;;;;;6.10;5.42;;;;;;;;;;1684642;85;21049;-66
2022/07/06 00:35:50;;;;;;;7.28;4.65;;;;;;;;;;1657069;86;21033;-66
2022/07/06 00:38:16;;;;;;;7.70;4.53;;;;;;;;;;1657133;86;21617;-66
2022/07/06 00:40:42;;;;;;;6.78;6.05;;;;;;;;;;1657119;86;21094;-67
2022/07/06 00:43:08;;;;;;;6.25;4.87;;;;;;;;;;1658421;85;21049;-66
2022/07/06 00:45:34;;;;;;;6.62;5.67;;;;;;;;;;1680022;85;21325;-66
2022/07/06 00:48:00;;;;;;;7.40;5.33;;;;;;;;;;1683450;85;21095;-66
2022/07/06 00:50:28;;;;;;;8.20;5.62;;;;;;;;;;1690309;85;21044;-66
2022/07/06 00:52:55;;;;;;;7.78;5.75;;;;;;;;;;1691407;83;21017;-66
2022/07/06 00:55:22;;;;;;;9.58;5.67;;;;;;;;;;1689572;84;21013;-66
2022/07/06 00:57:48;;;;;;;6.75;5.85;;;;;;;;;;1685569;85;21044;-66
2022/07/06 01:00:15;;;;;;;9.78;5.35;;;;;;;;;;1685840;85;21016;-67
2022/07/06 01:05:24;;;;;;;7.45;5.33;;;;;;;;;;1714948;83;21199;-66
2022/07/06 01:07:51;;;;;;;8.30;5.20;;;;;;;;;;1724869;83;21028;-66
2022/07/06 01:10:18;;;;;;;8.73;5.80;;;;;;;;;;1761370;81;21086;-66
2022/07/06 01:12:45;;;;;;;7.30;5.72;;;;;;;;;;1736873;81;21043;-66
2022/07/06 01:15:14;;;;;;;8.28;5.55;;;;;;;;;;1724793;83;21112;-65
2022/07/06 01:17:42;;;;;;;6.80;4.70;;;;;;;;;;1724689;83;21083;-65
2022/07/06 01:20:10;;;;;;;6.87;5.10;;;;;;;;;;1730408;81;21040;-65
2022/07/06 01:22:37;;;;;;;7.37;5.62;;;;;;;;;;1701170;83;21068;-65
2022/07/06 01:25:04;;;;;;;9.90;5.60;;;;;;;;;;1657960;86;21856;-66
2022/07/06 01:27:30;;;;;;;8.13;5.62;;;;;;;;;;1685371;85;21045;-67
2022/07/06 01:29:56;;;;;;;7.80;5.22;;;;;;;;;;1728346;83;21558;-66
2022/07/06 01:32:22;;;;;;;5.65;4.78;;;;;;;;;;1739877;81;21511;-65
2022/07/06 01:34:49;;;;;;;6.65;5.58;;;;;;;;;;1749100;82;21091;-66
2022/07/06 01:37:15;;;;;;;5.62;5.10;;;;;;;;;;1749015;82;21062;-65
2022/07/06 01:39:41;;;;;;;5.65;4.97;;;;;;;;;;1731649;82;21072;-66
2022/07/06 01:42:09;;;;;;;7.47;5.85;;;;;;;;;;1729541;83;21546;-65
2022/07/06 01:44:36;;;;;;;6.12;4.90;;;;;;;;;;1729354;83;22297;-66
2022/07/06 01:47:02;;;;;;;7.45;4.87;;;;;;;;;;1740124;81;21609;-66
2022/07/06 01:49:28;;;;;;;6.37;5.22;;;;;;;;;;1693878;83;21034;-65
2022/07/06 01:51:55;;;;;;;7.50;5.45;;;;;;;;;;1695620;84;21019;-65
2022/07/06 01:54:21;;;;;;;8.23;5.55;;;;;;;;;;1665227;86;21021;-65
2022/07/06 01:56:48;;;;;;;6.15;5.00;;;;;;;;;;1729497;83;21080;-64
2022/07/06 01:59:14;;;;;;;6.83;5.65;;;;;;;;;;1737444;82;21027;-67
2022/07/06 02:01:40;;;;;;;7.80;4.60;;;;;;;;;;1735456;82;21083;-65
2022/07/06 02:04:06;;;;;;;6.90;5.00;;;;;;;;;;1729422;83;21131;-66
2022/07/06 02:06:33;;;;;;;6.65;5.90;;;;;;;;;;1729327;83;21056;-66
2022/07/06 02:09:01;;;;;;;5.50;5.00;;;;;;;;;;1729325;83;21064;-66
2022/07/06 02:11:28;;;;;;;6.87;5.12;;;;;;;;;;1730533;83;21515;-65
2022/07/06 02:13:54;;;;;;;6.53;4.83;;;;;;;;;;1729864;81;21570;-66
2022/07/06 02:16:20;;;;;;;6.10;4.85;;;;;;;;;;1731245;83;21578;-66
2022/07/06 02:18:47;;;;;;;6.33;4.75;;;;;;;;;;1729724;83;21067;-66
2022/07/06 02:21:13;;;;;;;6.60;5.60;;;;;;;;;;1730796;83;20999;-66
2022/07/06 02:23:39;;;;;;;6.40;5.45;;;;;;;;;;1731085;83;21023;-66
2022/07/06 02:26:05;;;;;;;7.40;5.12;;;;;;;;;;1730830;81;21016;-66
2022/07/06 02:28:33;;;;;;;7.55;4.95;;;;;;;;;;1730915;83;21028;-66
2022/07/06 02:30:59;;;;;;;5.95;4.75;;;;;;;;;;1730923;83;20984;-66
2022/07/06 02:33:26;;;;;;;7.28;5.08;;;;;;;;;;1729341;83;21047;-66
2022/07/06 02:35:53;;;;;;;6.33;5.03;;;;;;;;;;1729418;83;21031;-66
2022/07/06 02:38:19;;;;;;;6.70;5.05;;;;;;;;;;1729624;83;21052;-66
2022/07/06 02:40:45;;;;;;;7.08;5.10;;;;;;;;;;1730087;81;21047;-66
2022/07/06 02:43:12;;;;;;;7.87;5.55;;;;;;;;;;1729239;83;21071;-66
2022/07/06 02:45:40;;;;;;;7.65;5.62;;;;;;;;;;1729204;83;21642;-66
2022/07/06 02:48:08;;;;;;;5.92;4.97;;;;;;;;;;1729482;83;21096;-66
2022/07/06 02:50:35;;;;;;;7.65;5.03;;;;;;;;;;1729183;83;21091;-66
2022/07/06 02:53:01;;;;;;;7.92;5.50;;;;;;;;;;1720378;81;21060;-66
2022/07/06 02:55:28;;;;;;;5.45;4.80;;;;;;;;;;1730974;83;21110;-66
2022/07/06 02:57:55;;;;;;;5.50;4.45;;;;;;;;;;1730862;83;20996;-66
2022/07/06 03:00:21;;;;;;;7.15;5.60;;;;;;;;;;1730919;82;21237;-66
2022/07/06 03:02:48;;;;;;;5.90;5.28;;;;;;;;;;1729534;83;21040;-66
2022/07/06 03:05:15;;;;;;;6.87;5.05;;;;;;;;;;1718719;83;21080;-66
2022/07/06 03:07:41;;;;;;;5.95;4.67;;;;;;;;;;1715299;82;21061;-66
2022/07/06 03:10:08;;;;;;;6.47;4.80;;;;;;;;;;1730572;82;21067;-66
2022/07/06 03:12:35;;;;;;;6.87;5.05;;;;;;;;;;1715433;84;21056;-66
2022/07/06 03:15:03;;;;;;;5.95;5.35;;;;;;;;;;1714137;83;21097;-66
2022/07/06 03:17:30;;;;;;;6.72;4.75;;;;;;;;;;1706616;84;21593;-66
2022/07/06 03:19:57;;;;;;;7.35;5.55;;;;;;;;;;1708071;84;21540;-66
2022/07/06 03:22:23;;;;;;;8.08;5.72;;;;;;;;;;1724942;82;21526;-66
2022/07/06 03:24:49;;;;;;;6.75;5.33;;;;;;;;;;1716500;83;21614;-66
2022/07/06 03:27:17;;;;;;;6.97;5.50;;;;;;;;;;1716376;83;21028;-66
2022/07/06 03:29:43;;;;;;;5.65;4.42;;;;;;;;;;1716479;83;21016;-66
2022/07/06 03:32:09;;;;;;;7.97;5.20;;;;;;;;;;1714765;83;21547;-65
2022/07/06 03:34:36;;;;;;;6.55;4.65;;;;;;;;;;1713750;83;21048;-66
2022/07/06 03:37:03;;;;;;;5.85;4.72;;;;;;;;;;1714905;82;20997;-66
2022/07/06 03:39:29;;;;;;;6.50;4.95;;;;;;;;;;1715460;84;21000;-66
2022/07/06 03:41:57;;;;;;;7.15;5.12;;;;;;;;;;1715220;84;21039;-66
2022/07/06 03:44:24;;;;;;;5.22;4.72;;;;;;;;;;1714202;84;21627;-66
2022/07/06 03:46:52;;;;;;;6.20;4.87;;;;;;;;;;1713933;84;21570;-66
2022/07/06 03:49:19;;;;;;;7.22;4.75;;;;;;;;;;1715031;82;21056;-66
2022/07/06 03:51:45;;;;;;;5.78;4.12;;;;;;;;;;1715355;84;21072;-66
2022/07/06 03:54:11;;;;;;;6.22;4.83;;;;;;;;;;1714065;84;21036;-66
2022/07/06 03:56:38;;;;;;;6.55;4.70;;;;;;;;;;1714546;84;21032;-66
2022/07/06 03:59:06;;;;;;;8.60;5.15;;;;;;;;;;1715343;83;20989;-66
2022/07/06 04:01:35;;;;;;;5.47;4.70;;;;;;;;;;1715460;84;21088;-66
2022/07/06 04:04:02;;;;;;;5.95;4.35;;;;;;;;;;1739748;81;21103;-66
2022/07/06 04:06:30;;;;;;;6.12;4.53;;;;;;;;;;1737183;82;21052;-67
2022/07/06 04:08:57;;;;;;;7.47;4.72;;;;;;;;;;1736023;82;21039;-66
2022/07/06 04:11:23;;;;;;;6.50;4.58;;;;;;;;;;1737363;82;21059;-66
2022/07/06 04:13:49;;;;;;;5.47;4.47;;;;;;;;;;1738354;82;21051;-67
2022/07/06 04:16:17;;;;;;;5.15;4.65;;;;;;;;;;1735923;81;21583;-66
2022/07/06 04:18:44;;;;;;;5.65;4.47;;;;;;;;;;1736879;82;21118;-66
2022/07/06 04:21:11;;;;;;;6.28;4.50;;;;;;;;;;1737828;82;21031;-66
2022/07/06 04:23:38;;;;;;;6.30;4.50;;;;;;;;;;1738547;82;22083;-67
2022/07/06 04:26:05;;;;;;;5.65;4.70;;;;;;;;;;1738679;82;21058;-66
2022/07/06 04:28:32;;;;;;;5.33;4.78;;;;;;;;;;1737812;82;21495;-66
2022/07/06 04:30:59;;;;;;;6.97;4.55;;;;;;;;;;1735162;82;20976;-66
2022/07/06 04:33:25;;;;;;;7.60;4.53;;;;;;;;;;1732593;83;21064;-66
2022/07/06 04:35:52;;;;;;;5.90;4.20;;;;;;;;;;1734404;82;21079;-67
2022/07/06 04:38:20;;;;;;;5.10;4.60;;;;;;;;;;1738631;82;21039;-65
2022/07/06 04:40:47;;;;;;;5.83;4.53;;;;;;;;;;1738116;82;21043;-66
2022/07/06 04:43:15;;;;;;;5.35;4.10;;;;;;;;;;1736111;81;21036;-66
2022/07/06 04:45:41;;;;;;;6.05;4.55;;;;;;;;;;1738233;82;21041;-66
2022/07/06 04:48:09;;;;;;;4.97;4.12;;;;;;;;;;1734364;82;21546;-67
2022/07/06 04:50:35;;;;;;;5.47;4.30;;;;;;;;;;1732737;83;21059;-66
2022/07/06 04:53:02;;;;;;;5.15;4.50;;;;;;;;;;1735973;82;21549;-67
2022/07/06 04:55:29;;;;;;;7.03;4.50;;;;;;;;;;1710010;82;21114;-66
2022/07/06 04:57:56;;;;;;;6.85;4.58;;;;;;;;;;1736611;82;21519;-66
2022/07/06 05:00:23;;;;;;;24.47;6.20;;;;;;;;;;1737366;82;21474;-66
2022/07/06 05:02:50;;;;;;;7.12;3.72;;;;;;;;;;1738387;82;21066;-66
2022/07/06 05:05:16;;;;;;;6.12;4.10;;;;;;;;;;1730549;82;21591;-66
2022/07/06 05:07:44;;;;;;;7.90;4.35;;;;;;;;;;1721091;83;21080;-66
2022/07/06 05:10:11;;;;;;;5.33;4.35;;;;;;;;;;1718925;83;21077;-67
2022/07/06 05:12:40;;;;;;;4.90;3.95;;;;;;;;;;1664235;86;21601;-66
2022/07/06 05:15:09;;;;;;;5.53;4.20;;;;;;;;;;1688068;85;21387;-66
2022/07/06 05:17:37;;;;;;;7.15;4.08;;;;;;;;;;1690675;85;21512;-66
2022/07/06 05:20:04;;;;;;;7.10;4.00;;;;;;;;;;1708246;83;21028;-68
2022/07/06 05:22:32;;;;;;;6.78;4.30;;;;;;;;;;1721136;83;21519;-68
2022/07/06 05:24:59;;;;;;;5.83;4.65;;;;;;;;;;1702459;83;21542;-67
2022/07/06 05:27:25;;;;;;;19.02;5.00;;;;;;;;;;1723493;83;21081;-66
2022/07/06 05:29:52;;;;;;;8.38;4.25;;;;;;;;;;1712415;83;21504;-67
2022/07/06 05:32:19;;;;;;;7.53;4.30;;;;;;;;;;1686005;85;21090;-67
2022/07/06 05:34:45;;;;;;;8.55;4.37;;;;;;;;;;1664894;85;21527;-68
2022/07/06 05:37:12;;;;;;;7.85;4.30;;;;;;;;;;1615155;87;21100;-67
2022/07/06 05:39:38;;;;;;;6.00;4.37;;;;;;;;;;1646244;85;21068;-66
2022/07/06 05:42:05;;;;;;;5.28;4.45;;;;;;;;;;1638964;85;21068;-66
2022/07/06 05:44:33;;;;;;;4.65;4.10;;;;;;;;;;1650567;85;21035;-65
2022/07/06 05:52:30;;;;;;;7.42;5.33;;;;;;;;;;1657444;85;21107;-66
2022/07/06 05:54:57;;;;;;;8.93;5.05;;;;;;;;;;1654122;85;21480;-66
2022/07/06 05:57:23;;;;;;;5.97;4.62;;;;;;;;;;1648557;85;21602;-66
2022/07/06 05:59:50;;;;;;;5.60;4.00;;;;;;;;;;1676260;85;21588;-66
2022/07/06 06:02:17;;;;;;;4.08;3.58;;;;;;;;;;1672000;85;21642;-66
2022/07/06 06:04:43;;;;;;;7.83;4.20;;;;;;;;;;1665424;84;21027;-66
2022/07/06 06:07:10;;;;;;;8.05;4.40;;;;;;;;;;1669712;84;21264;-66
2022/07/06 06:09:37;;;;;;;8.55;4.33;;;;;;;;;;1668058;86;21117;-65
2022/07/06 06:12:03;;;;;;;4.83;4.10;;;;;;;;;;1668371;86;21184;-66
2022/07/06 06:14:30;;;;;;;4.03;3.60;;;;;;;;;;1679494;84;21009;-66
2022/07/06 06:16:58;;;;;;;9.93;3.95;;;;;;;;;;1695655;84;20997;-66
2022/07/06 06:19:24;;;;;;;7.92;3.90;;;;;;;;;;1664349;86;21588;-66
2022/07/06 06:21:51;;;;;;;5.03;3.72;;;;;;;;;;1716001;83;21563;-66
2022/07/06 06:24:18;;;;;;;24.52;4.87;;;;;;;;;;1687387;84;21028;-66
2022/07/06 06:26:44;;;;;;;4.62;3.70;;;;;;;;;;1654549;85;21033;-65
2022/07/06 06:29:11;;;;;;;5.10;3.52;;;;;;;;;;1721314;82;21083;-66
2022/07/06 06:31:37;;;;;;;5.53;3.90;;;;;;;;;;1734984;82;21035;-66
2022/07/06 06:34:04;;;;;;;10.75;4.22;;;;;;;;;;1722099;82;21083;-66
2022/07/06 06:36:31;;;;;;;5.03;3.40;;;;;;;;;;1717230;83;21072;-65
2022/07/06 06:38:57;;;;;;;5.60;3.87;;;;;;;;;;1728662;82;21001;-66
2022/07/06 06:41:24;;;;;;;8.53;4.03;;;;;;;;;;1720274;83;21602;-65
2022/07/06 06:43:50;;;;;;;4.12;3.67;;;;;;;;;;1722076;82;21488;-66
2022/07/06 06:46:20;;;;;;;4.35;3.22;;;;;;;;;;1716405;82;21009;-66
2022/07/06 06:48:46;;;;;;;4.37;3.80;;;;;;;;;;1709596;82;21047;-65
2022/07/06 06:51:13;;;;;;;4.60;3.60;;;;;;;;;;1724892;82;20997;-65
2022/07/06 06:53:39;;;;;;;6.50;3.62;;;;;;;;;;1726476;82;21035;-66
2022/07/06 06:56:05;;;;;;;11.85;4.28;;;;;;;;;;1717076;82;20986;-64
2022/07/06 06:58:32;;;;;;;4.92;3.98;;;;;;;;;;1736157;82;21000;-64
2022/07/06 07:00:58;;;;;;;4.92;3.60;;;;;;;;;;1704360;82;21591;-68
2022/07/06 07:03:24;;;;;;;6.83;4.12;;;;;;;;;;1718289;82;21055;-63
2022/07/06 07:05:50;;;;;;;6.22;3.77;;;;;;;;;;1721159;81;21095;-63
2022/07/06 07:08:18;;;;;;;6.05;4.37;;;;;;;;;;1686728;83;21096;-62
2022/07/06 07:10:44;;;;;;;5.08;3.60;;;;;;;;;;1710688;82;21060;-63
2022/07/06 07:13:10;;;;;;;4.55;3.37;;;;;;;;;;1718578;82;21008;-63
2022/07/06 07:15:37;;;;;;;5.78;3.75;;;;;;;;;;1712052;82;21020;-63
2022/07/06 07:18:03;;;;;;;6.05;3.70;;;;;;;;;;1715423;83;21001;-62
2022/07/06 07:20:30;;;;;;;4.87;3.60;;;;;;;;;;1716020;83;21126;-64
2022/07/06 07:22:57;;;;;;;5.55;3.70;;;;;;;;;;1715034;84;21056;-64
2022/07/06 07:25:24;;;;;;;7.15;3.60;;;;;;;;;;1700892;84;21589;-63
2022/07/06 07:27:50;;;;;;;4.72;3.70;;;;;;;;;;1715404;84;21554;-63
2022/07/06 07:30:16;;;;;;;4.37;3.70;;;;;;;;;;1716574;82;21056;-64
2022/07/06 07:32:43;;;;;;;7.12;3.80;;;;;;;;;;1723321;82;21016;-66
2022/07/06 07:35:10;;;;;;;15.13;11.70;;;;;;;;;;1701695;82;21055;-66
2022/07/06 07:37:36;;;;;;;11.73;10.50;;;;;;;;;;1713323;82;21064;-64
2022/07/06 07:40:02;;;;;;;5.95;5.12;;;;;;;;;;1715363;82;21048;-62
2022/07/06 07:42:29;;;;;;;7.08;3.92;;;;;;;;;;1710158;82;21077;-62
2022/07/06 07:44:55;;;;;;;4.42;4.00;;;;;;;;;;1729335;82;21016;-63
2022/07/06 07:47:21;;;;;;;5.83;3.80;;;;;;;;;;1708735;82;21012;-63
2022/07/06 07:49:48;;;;;;;5.60;3.60;;;;;;;;;;1720230;82;21007;-62
2022/07/06 07:52:14;;;;;;;4.90;3.87;;;;;;;;;;1715041;82;21527;-63
2022/07/06 07:54:41;;;;;;;9.98;4.25;;;;;;;;;;1714832;82;20993;-63
2022/07/06 07:57:07;;;;;;;6.08;3.80;;;;;;;;;;1718974;82;21001;-63
2022/07/06 07:59:33;;;;;;;8.60;4.05;;;;;;;;;;1722894;82;20964;-63
2022/07/06 08:01:59;;;;;;;5.87;3.90;;;;;;;;;;1705020;82;21431;-62
2022/07/06 08:04:26;;;;;;;6.17;3.80;;;;;;;;;;1713191;82;21133;-63
2022/07/06 08:06:52;;;;;;;59.08;52.67;;;;;;;;;;1711031;81;21710;-64
2022/07/06 08:09:18;;;;;;;58.63;52.58;;;;;;;;;;1723972;83;21064;-65
2022/07/06 08:11:45;;;;;;;23.12;20.60;;;;;;;;;;1722445;81;21072;-62
2022/07/06 08:14:13;;;;;;;6.75;5.37;;;;;;;;;;1722502;81;21080;-62
2022/07/06 08:16:39;;;;;;;6.42;4.22;;;;;;;;;;1721404;81;21617;-61
2022/07/06 08:19:05;;;;;;;6.12;3.90;;;;;;;;;;1725400;81;21009;-64
2022/07/06 08:21:32;;;;;;;7.12;4.47;;;;;;;;;;1698707;83;21068;-64
2022/07/06 08:24:00;;;;;;;6.15;3.80;;;;;;;;;;1712701;83;21008;-64
2022/07/06 08:26:26;;;;;;;4.65;3.77;;;;;;;;;;1711757;83;21123;-63
2022/07/06 08:28:52;;;;;;;4.17;3.60;;;;;;;;;;1708391;83;21049;-64
2022/07/06 08:31:19;;;;;;;5.17;3.98;;;;;;;;;;1728648;81;21075;-64
2022/07/06 08:33:45;;;;;;;5.62;3.85;;;;;;;;;;1695608;83;21537;-64
2022/07/06 08:36:12;;;;;;;6.03;4.17;;;;;;;;;;1652568;85;21034;-63
2022/07/06 08:38:39;;;;;;;3.90;3.40;;;;;;;;;;1682636;84;21528;-62
2022/07/06 08:41:05;;;;;;;8.70;4.30;;;;;;;;;;1706689;83;21044;-63
2022/07/06 08:43:32;;;;;;;4.85;4.10;;;;;;;;;;1691973;83;22029;-64
2022/07/06 08:45:58;;;;;;;4.83;4.05;;;;;;;;;;1680419;84;21517;-63
2022/07/06 08:48:25;;;;;;;8.40;4.17;;;;;;;;;;1689543;83;21035;-63
2022/07/06 08:50:53;;;;;;;10.48;7.22;;;;;;;;;;1677752;84;21138;-64
2022/07/06 08:53:19;;;;;;;6.37;4.60;;;;;;;;;;1687557;84;21499;-65
2022/07/06 08:55:45;;;;;;;20.68;17.00;;;;;;;;;;1715971;82;21029;-66
2022/07/06 08:58:11;;;;;;;6.60;4.50;;;;;;;;;;1745537;81;20971;-63
2022/07/06 09:00:37;;;;;;;18.60;5.05;;;;;;;;;;1739214;81;21019;-63
2022/07/06 09:05:07;;;;;;;5.37;3.72;;;;;;;;;;1769207;79;23061;-63
2022/07/06 09:07:33;;;;;;;5.33;3.70;;;;;;;;;;1747682;80;21013;-63
2022/07/06 09:09:59;;;;;;;5.90;4.25;;;;;;;;;;1752001;81;21024;-63
2022/07/06 09:12:28;;;;;;;6.03;3.92;;;;;;;;;;1751059;80;21016;-64
2022/07/06 09:14:55;;;;;;;6.67;4.20;;;;;;;;;;1753313;80;21000;-63
2022/07/06 09:17:24;;;;;;;5.12;3.95;;;;;;;;;;1740331;81;21064;-62
2022/07/06 09:19:51;;;;;;;8.15;4.10;;;;;;;;;;1753586;81;21097;-62
2022/07/06 09:22:34;;;;;;;13.60;5.10;;;;;;;;;;1750355;81;21000;-63
2022/07/06 09:25:12;;;;;;;5.03;3.75;;;;;;;;;;1750818;80;21024;-63
2022/07/06 09:27:40;;;;;;;7.65;4.03;;;;;;;;;;1753823;81;21107;-63
2022/07/06 09:30:07;;;;;;;6.33;4.50;;;;;;;;;;1757808;80;21068;-63
2022/07/06 09:32:50;;;;;;;7.08;4.30;;;;;;;;;;1753524;81;21036;-64
2022/07/06 09:35:20;;;;;;;12.65;5.00;;;;;;;;;;1751807;80;21508;-63
2022/07/06 09:37:47;;;;;;;8.60;4.70;;;;;;;;;;1724756;80;21044;-65
2022/07/06 09:40:20;;;;;;;7.05;4.50;;;;;;;;;;1723169;81;21024;-64
2022/07/06 09:42:46;;;;;;;5.20;4.58;;;;;;;;;;1752683;81;21075;-64
2022/07/06 09:45:13;;;;;;;7.47;4.22;;;;;;;;;;1745332;80;21063;-63
2022/07/06 09:47:42;;;;;;;9.85;4.85;;;;;;;;;;1749192;81;21049;-62
2022/07/06 09:50:08;;;;;;;5.62;4.33;;;;;;;;;;1743771;81;21047;-63
2022/07/06 09:52:36;;;;;;;9.28;5.22;;;;;;;;;;1757031;81;21083;-63
2022/07/06 09:55:05;;;;;;;5.55;4.95;;;;;;;;;;1742984;81;21021;-64
2022/07/06 09:57:31;;;;;;;6.55;4.85;;;;;;;;;;1759609;81;21483;-61
2022/07/06 09:59:58;;;;;;;7.30;4.62;;;;;;;;;;1752107;80;21115;-63
2022/07/06 10:02:24;;;;;;;7.78;5.08;;;;;;;;;;1718148;83;21560;-63
2022/07/06 10:04:50;;;;;;;8.18;4.50;;;;;;;;;;1685249;84;21030;-62
2022/07/06 10:07:16;;;;;;;6.92;4.97;;;;;;;;;;1691938;82;21027;-63
2022/07/06 10:09:42;;;;;;;7.78;5.28;;;;;;;;;;1726942;82;21005;-63
2022/07/06 10:12:10;;;;;;;7.33;5.12;;;;;;;;;;1709076;82;21088;-62
2022/07/06 10:14:37;;;;;;;6.53;5.40;;;;;;;;;;1711983;83;21064;-63
2022/07/06 10:17:06;;;;;;;8.25;5.03;;;;;;;;;;1707505;84;21034;-62
2022/07/06 10:19:32;;;;;;;11.85;5.33;;;;;;;;;;1712184;83;21074;-62
2022/07/06 10:22:00;;;;;;;7.37;5.10;;;;;;;;;;1712606;82;21077;-63
2022/07/06 10:24:26;;;;;;;24.05;19.65;;;;;;;;;;1710932;83;21339;-61
2022/07/06 10:26:52;;;;;;;9.65;8.63;;;;;;;;;;1711122;84;21059;-62
2022/07/06 10:29:18;;;;;;;6.65;5.85;;;;;;;;;;1711904;82;21068;-59
2022/07/06 10:31:45;;;;;;;7.33;5.53;;;;;;;;;;1706071;83;21143;-63
2022/07/06 10:34:12;;;;;;;6.08;4.97;;;;;;;;;;1710607;84;21070;-64
2022/07/06 10:36:39;;;;;;;7.35;5.08;;;;;;;;;;1702604;82;21060;-63
2022/07/06 10:41:02;;;;;;;6.78;5.12;;;;;;;;;;1710520;84;21615;-63
2022/07/06 10:41:35;;;;;;;8.85;5.22;;;;;;;;;;1672795;84;21060;-63
2022/07/06 10:44:14;;;;;;;5.80;4.70;;;;;;;;;;1707399;82;21053;-63
2022/07/06 10:46:41;;;;;;;6.78;4.90;;;;;;;;;;1713475;82;21049;-63
2022/07/06 10:49:17;;;;;;;6.92;5.35;;;;;;;;;;1711721;83;21076;-63
2022/07/06 10:51:43;;;;;;;7.40;5.00;;;;;;;;;;1710739;84;21033;-64
2022/07/06 10:54:09;;;;;;;6.33;4.87;;;;;;;;;;1711958;82;21069;-62
2022/07/06 10:56:37;;;;;;;6.72;4.85;;;;;;;;;;1710073;82;21025;-62
2022/07/06 10:59:05;;;;;;;8.13;5.20;;;;;;;;;;1711977;84;21033;-63
2022/07/06 11:01:34;;;;;;;5.95;4.90;;;;;;;;;;1714758;82;21056;-62
2022/07/06 11:04:05;;;;;;;5.40;4.80;;;;;;;;;;1710388;84;21037;-62
2022/07/06 11:06:32;;;;;;;6.92;4.78;;;;;;;;;;1708945;84;22133;-63
2022/07/06 11:08:58;;;;;;;5.47;4.70;;;;;;;;;;1710877;84;21068;-63
2022/07/06 11:11:25;;;;;;;7.25;5.08;;;;;;;;;;1677277;84;21033;-63
2022/07/06 11:13:53;;;;;;;8.73;5.10;;;;;;;;;;1676857;85;21011;-62
2022/07/06 11:16:21;;;;;;;6.58;4.85;;;;;;;;;;1668762;84;21713;-63
2022/07/06 11:18:48;;;;;;;7.50;5.28;;;;;;;;;;1677655;85;21620;-62
2022/07/06 11:21:16;;;;;;;7.47;4.87;;;;;;;;;;1677679;85;21050;-63
2022/07/06 11:23:43;;;;;;;5.47;4.78;;;;;;;;;;1673586;84;21519;-65
2022/07/06 11:26:09;;;;;;;9.55;5.10;;;;;;;;;;1677148;85;21027;-63
2022/07/06 11:28:36;;;;;;;26.60;22.87;;;;;;;;;;1712131;84;21028;-65
2022/07/06 11:31:02;;;;;;;11.18;8.53;;;;;;;;;;1712264;84;21556;-63
2022/07/06 11:33:31;;;;;;;7.42;5.62;;;;;;;;;;1706859;82;21540;-64
2022/07/06 11:36:17;;;;;;;5.85;4.92;;;;;;;;;;1701356;83;21017;-63
2022/07/06 11:38:43;;;;;;;7.03;5.00;;;;;;;;;;1700671;83;20997;-63
2022/07/06 11:41:11;;;;;;;7.47;5.53;;;;;;;;;;1701111;83;22151;-64
2022/07/06 11:43:42;;;;;;;6.30;5.22;;;;;;;;;;1700548;83;21065;-62
2022/07/06 11:46:07;;;;;;;7.95;5.03;;;;;;;;;;1699513;82;21064;-63
2022/07/06 11:48:33;;;;;;;5.45;4.60;;;;;;;;;;1700279;82;21061;-63
2022/07/06 11:51:03;;;;;;;6.90;4.53;;;;;;;;;;1699228;83;21057;-62
2022/07/06 11:53:29;;;;;;;7.45;5.22;;;;;;;;;;1699796;82;21552;-63
2022/07/06 11:55:55;;;;;;;6.72;5.10;;;;;;;;;;1698139;82;21033;-63
2022/07/06 11:58:22;;;;;;;6.80;5.08;;;;;;;;;;1696679;83;21100;-64
2022/07/06 12:01:08;;;;;;;10.28;5.30;;;;;;;;;;1696503;83;21088;-63
2022/07/06 12:03:35;;;;;;;7.67;5.08;;;;;;;;;;1703757;82;21101;-64
2022/07/06 12:06:02;;;;;;;7.40;4.80;;;;;;;;;;1705185;83;21101;-64
2022/07/06 12:08:29;;;;;;;6.00;4.85;;;;;;;;;;1701974;83;21072;-63
2022/07/06 12:10:55;;;;;;;8.80;6.05;;;;;;;;;;1702641;83;21082;-63
2022/07/06 12:13:21;;;;;;;7.50;5.05;;;;;;;;;;1705079;83;21032;-63
2022/07/06 12:15:47;;;;;;;10.60;5.33;;;;;;;;;;1701287;83;21598;-63
2022/07/06 12:18:14;;;;;;;6.35;4.50;;;;;;;;;;1707710;83;21197;-63
2022/07/06 12:20:40;;;;;;;7.72;4.75;;;;;;;;;;1708616;83;21757;-63
2022/07/06 12:23:07;;;;;;;9.10;5.00;;;;;;;;;;1698016;83;21097;-64
2022/07/06 12:25:34;;;;;;;8.98;5.00;;;;;;;;;;1706685;83;21049;-63
2022/07/06 12:28:01;;;;;;;6.83;4.37;;;;;;;;;;1681811;85;21238;-63
2022/07/06 12:30:27;;;;;;;45.48;7.80;;;;;;;;;;1659695;85;21117;-63
2022/07/06 12:33:12;;;;;;;6.85;4.97;;;;;;;;;;1718778;83;21023;-62
2022/07/06 12:35:38;;;;;;;6.72;4.47;;;;;;;;;;1719729;83;21027;-61
2022/07/06 12:38:04;;;;;;;8.18;4.80;;;;;;;;;;1717910;83;21055;-63
2022/07/06 12:40:31;;;;;;;7.53;4.40;;;;;;;;;;1717261;82;21591;-62
2022/07/06 12:42:57;;;;;;;8.40;4.47;;;;;;;;;;1719541;82;21049;-63
2022/07/06 12:45:27;;;;;;;5.30;4.45;;;;;;;;;;1719712;83;20988;-63
2022/07/06 12:48:00;;;;;;;5.45;4.30;;;;;;;;;;1683199;84;21003;-63
2022/07/06 12:50:34;;;;;;;5.85;4.40;;;;;;;;;;1715821;83;21076;-63
2022/07/06 12:53:00;;;;;;;8.30;4.50;;;;;;;;;;1718027;83;21058;-63
2022/07/06 12:55:28;;;;;;;8.23;4.53;;;;;;;;;;1717302;83;21028;-61
2022/07/06 12:57:55;;;;;;;6.75;4.10;;;;;;;;;;1685007;85;21651;-66
2022/07/06 13:00:21;;;;;;;8.15;4.53;;;;;;;;;;1718128;82;21020;-66
2022/07/06 13:02:53;;;;;;;6.28;3.90;;;;;;;;;;1717276;83;21119;-63
2022/07/06 13:05:17;;;;;;;5.80;4.25;;;;;;;;;;1714034;83;21039;-66
2022/07/06 13:07:47;;;;;;;8.70;5.00;;;;;;;;;;1709768;82;21088;-65
2022/07/06 13:10:13;;;;;;;14.63;5.37;;;;;;;;;;1676091;84;22138;-66
2022/07/06 13:12:40;;;;;;;7.00;4.62;;;;;;;;;;1707218;84;21497;-65
2022/07/06 13:15:07;;;;;;;37.85;33.88;;;;;;;;;;1708240;82;21531;-70
2022/07/06 13:17:35;;;;;;;31.65;22.58;;;;;;;;;;1710306;84;21064;-66
2022/07/06 13:20:02;;;;;;;9.15;5.83;;;;;;;;;;1711552;83;21038;-66
2022/07/06 13:22:29;;;;;;;53.78;43.63;;;;;;;;;;1710882;83;21041;-65
2022/07/06 13:24:56;;;;;;;19.80;14.90;;;;;;;;;;1704269;84;21592;-65
2022/07/06 13:27:22;;;;;;;9.00;5.47;;;;;;;;;;1683511;85;21564;-65
2022/07/06 13:29:49;;;;;;;6.45;4.90;;;;;;;;;;1709836;83;21647;-65
2022/07/06 13:32:15;;;;;;;8.70;4.95;;;;;;;;;;1700888;83;21481;-65
2022/07/06 13:34:42;;;;;;;6.97;5.03;;;;;;;;;;1718681;82;21564;-65
2022/07/06 13:37:08;;;;;;;13.28;6.05;;;;;;;;;;1705199;83;21025;-64
2022/07/06 13:39:35;;;;;;;6.80;4.80;;;;;;;;;;1711838;83;21078;-66
2022/07/06 13:42:02;;;;;;;9.08;4.85;;;;;;;;;;1706827;84;21062;-66
2022/07/06 13:44:28;;;;;;;11.05;5.53;;;;;;;;;;1705372;83;21041;-65
2022/07/06 13:46:55;;;;;;;10.70;6.08;;;;;;;;;;1706063;84;21056;-67
2022/07/06 13:49:22;;;;;;;10.72;5.72;;;;;;;;;;1708280;84;21059;-66
2022/07/06 13:51:48;;;;;;;11.55;5.45;;;;;;;;;;1711576;84;21620;-65
2022/07/06 13:54:15;;;;;;;8.50;5.42;;;;;;;;;;1697265;82;21064;-66
2022/07/06 13:56:41;;;;;;;12.37;5.65;;;;;;;;;;1708250;84;21030;-66
2022/07/06 13:59:08;;;;;;;10.82;5.40;;;;;;;;;;1702563;83;21072;-66
2022/07/06 14:01:34;;;;;;;6.50;5.60;;;;;;;;;;1710058;82;21152;-66
2022/07/06 14:04:00;;;;;;;9.48;5.15;;;;;;;;;;1709310;84;21101;-65
2022/07/06 14:06:26;;;;;;;8.88;5.72;;;;;;;;;;1695880;83;21055;-66
2022/07/06 14:08:53;;;;;;;6.25;4.97;;;;;;;;;;1682466;85;21620;-62
2022/07/06 14:11:19;;;;;;;7.75;4.78;;;;;;;;;;1634260;88;21037;-64
2022/07/06 14:13:45;;;;;;;10.15;5.35;;;;;;;;;;1688005;84;21027;-66
2022/07/06 14:16:12;;;;;;;7.12;5.10;;;;;;;;;;1670699;86;21144;-66
2022/07/06 14:18:39;;;;;;;11.35;5.53;;;;;;;;;;1689779;84;21160;-65
2022/07/06 14:21:06;;;;;;;6.95;5.10;;;;;;;;;;1675918;84;21020;-65
2022/07/06 14:23:32;;;;;;;7.95;5.40;;;;;;;;;;1673225;84;21080;-65
2022/07/06 14:25:58;;;;;;;7.95;5.60;;;;;;;;;;1676393;84;21158;-64
2022/07/06 14:28:25;;;;;;;6.53;5.55;;;;;;;;;;1688864;84;21075;-65
2022/07/06 14:30:52;;;;;;;29.87;22.50;;;;;;;;;;1684894;84;21024;-62
2022/07/06 14:33:19;;;;;;;26.45;20.90;;;;;;;;;;1695623;85;21565;-63
2022/07/06 14:35:55;;;;;;;13.60;9.45;;;;;;;;;;1683955;84;21092;-64
2022/07/06 14:38:19;;;;;;;8.98;6.28;;;;;;;;;;1684240;84;21593;-65
2022/07/06 14:40:45;;;;;;;8.83;5.83;;;;;;;;;;1677081;84;21036;-64
2022/07/06 14:43:11;;;;;;;7.35;5.60;;;;;;;;;;1682366;84;21048;-63
2022/07/06 14:45:38;;;;;;;9.05;5.70;;;;;;;;;;1696328;84;21107;-65
2022/07/06 14:48:05;;;;;;;7.58;5.62;;;;;;;;;;1687982;85;21105;-67
2022/07/06 14:50:32;;;;;;;10.48;6.75;;;;;;;;;;1693448;84;21036;-65